createdAt,value
2019-05-18T00:00:22.620Z,82.80
2019-05-18T00:01:22.610Z,82.80
2019-05-18T00:02:22.606Z,82.90
2019-05-18T00:03:22.629Z,83.11
2019-05-18T00:04:22.638Z,83.11
2019-05-18T00:05:22.565Z,83.11
2019-05-18T00:06:22.557Z,83.01
2019-05-18T00:07:22.545Z,83.01
2019-05-18T00:08:22.536Z,82.90
2019-05-18T00:09:22.534Z,82.90
2019-05-18T00:10:22.508Z,83.11
2019-05-18T00:11:22.493Z,83.42
2019-05-18T00:12:22.482Z,83.82
2019-05-18T00:13:22.498Z,83.96
2019-05-18T00:14:22.471Z,84.06
2019-05-18T00:15:22.461Z,84.06
2019-05-18T00:16:22.448Z,84.41
2019-05-18T00:17:25.316Z,84.61
2019-05-18T00:18:22.438Z,84.92
2019-05-18T00:19:22.791Z,85.22
2019-05-18T00:20:22.402Z,84.92
2019-05-18T00:21:22.416Z,85.43
2019-05-18T00:22:22.392Z,85.63
2019-05-18T00:23:22.369Z,85.74
2019-05-18T00:24:22.358Z,85.94
2019-05-18T00:25:22.346Z,85.94
2019-05-18T00:26:22.340Z,85.84
2019-05-18T00:27:22.336Z,85.53
2019-05-18T00:28:22.316Z,85.37
2019-05-18T00:29:22.306Z,85.37
2019-05-18T00:30:22.305Z,85.43
2019-05-18T00:31:22.295Z,85.33
2019-05-18T00:32:22.274Z,85.33
2019-05-18T00:33:22.290Z,85.43
2019-05-18T00:34:22.247Z,85.33
2019-05-18T00:35:22.244Z,85.33
2019-05-18T00:36:22.239Z,85.22
2019-05-18T00:37:22.225Z,85.02
2019-05-18T00:38:22.221Z,84.82
2019-05-18T00:39:22.217Z,84.58
2019-05-18T00:40:22.412Z,84.37
2019-05-18T00:41:22.296Z,84.17
2019-05-18T00:42:22.161Z,83.96
2019-05-18T00:43:22.163Z,83.86
2019-05-18T00:44:22.140Z,83.86
2019-05-18T00:45:22.132Z,83.96
2019-05-18T00:46:22.120Z,83.86
2019-05-18T00:47:22.141Z,83.76
2019-05-18T00:48:22.098Z,83.86
2019-05-18T00:49:22.103Z,83.90
2019-05-18T00:50:22.078Z,83.80
2019-05-18T00:51:23.486Z,83.90
2019-05-18T00:52:22.071Z,84.00
2019-05-18T00:53:22.049Z,84.11
2019-05-18T00:54:22.036Z,84.20
2019-05-18T00:55:22.025Z,84.41
2019-05-18T00:56:22.019Z,84.61
2019-05-18T00:57:22.026Z,84.72
2019-05-18T00:58:21.986Z,84.72
2019-05-18T00:59:21.978Z,84.72
2019-05-18T01:00:21.964Z,84.72
2019-05-18T01:01:21.996Z,84.61
2019-05-18T01:02:21.973Z,84.61
2019-05-18T01:03:21.947Z,84.61
2019-05-18T01:04:21.926Z,84.72
2019-05-18T01:05:21.921Z,84.61
2019-05-18T01:06:21.903Z,84.61
2019-05-18T01:07:21.923Z,84.51
2019-05-18T01:08:21.885Z,84.41
2019-05-18T01:09:21.906Z,84.51
2019-05-18T01:10:21.866Z,84.51
2019-05-18T01:11:21.860Z,84.51
2019-05-18T01:12:21.863Z,84.61
2019-05-18T01:13:21.843Z,84.61
2019-05-18T01:14:21.813Z,84.61
2019-05-18T01:15:21.824Z,84.51
2019-05-18T01:16:21.800Z,84.51
2019-05-18T01:17:21.797Z,84.41
2019-05-18T01:18:21.785Z,84.51
2019-05-18T01:19:21.766Z,84.51
2019-05-18T01:20:21.750Z,84.41
2019-05-18T01:21:21.736Z,84.31
2019-05-18T01:22:21.746Z,84.41
2019-05-18T01:23:21.730Z,84.41
2019-05-18T01:24:21.714Z,84.51
2019-05-18T01:25:21.698Z,84.72
2019-05-18T01:26:21.687Z,84.61
2019-05-18T01:27:21.699Z,84.41
2019-05-18T01:28:21.673Z,84.41
2019-05-18T01:29:21.656Z,84.41
2019-05-18T01:30:21.640Z,84.51
2019-05-18T01:31:21.634Z,84.61
2019-05-18T01:32:21.704Z,84.72
2019-05-18T01:33:21.613Z,84.82
2019-05-18T01:34:21.622Z,84.92
2019-05-18T01:35:21.591Z,84.82
2019-05-18T01:36:21.580Z,84.82
2019-05-18T01:37:21.575Z,84.86
2019-05-18T01:38:21.572Z,84.96
2019-05-18T01:39:21.555Z,85.06
2019-05-18T01:40:21.531Z,85.16
2019-05-18T01:41:21.530Z,85.16
2019-05-18T01:42:21.518Z,85.27
2019-05-18T01:43:21.517Z,85.27
2019-05-18T01:44:21.492Z,85.37
2019-05-18T01:45:21.487Z,85.57
2019-05-18T01:46:21.478Z,85.77
2019-05-18T01:47:21.469Z,85.88
2019-05-18T01:48:21.474Z,85.92
2019-05-18T01:49:21.447Z,85.92
2019-05-18T01:50:21.424Z,86.02
2019-05-18T01:51:21.419Z,86.12
2019-05-18T01:52:21.404Z,86.22
2019-05-18T01:53:21.406Z,86.22
2019-05-18T01:54:21.395Z,86.22
2019-05-18T01:55:21.384Z,86.22
2019-05-18T01:56:21.363Z,86.33
2019-05-18T01:57:21.364Z,86.33
2019-05-18T01:58:21.361Z,86.33
2019-05-18T01:59:21.331Z,86.43
2019-05-18T02:00:21.322Z,86.43
2019-05-18T02:01:21.319Z,86.18
2019-05-18T02:02:21.301Z,86.08
2019-05-18T02:03:21.307Z,86.08
2019-05-18T02:04:21.281Z,86.08
2019-05-18T02:05:21.276Z,86.08
2019-05-18T02:06:21.317Z,86.39
2019-05-18T02:07:21.250Z,86.49
2019-05-18T02:08:21.236Z,86.39
2019-05-18T02:09:21.279Z,86.53
2019-05-18T02:10:21.297Z,86.49
2019-05-18T02:11:21.237Z,86.53
2019-05-18T02:12:21.197Z,86.53
2019-05-18T02:13:21.839Z,86.53
2019-05-18T02:14:21.215Z,86.83
2019-05-18T02:15:21.176Z,87.04
2019-05-18T02:16:21.183Z,87.04
2019-05-18T02:17:21.144Z,86.94
2019-05-18T02:18:28.711Z,87.04
2019-05-18T02:19:24.777Z,87.14
2019-05-18T02:20:21.104Z,87.24
2019-05-18T02:21:21.225Z,87.35
2019-05-18T02:22:21.093Z,87.45
2019-05-18T02:23:21.097Z,87.45
2019-05-18T02:24:21.085Z,87.45
2019-05-18T02:25:21.056Z,87.45
2019-05-18T02:26:21.042Z,87.35
2019-05-18T02:27:21.073Z,87.24
2019-05-18T02:28:21.020Z,87.24
2019-05-18T02:29:21.019Z,87.35
2019-05-18T02:30:21.027Z,87.55
2019-05-18T02:31:20.992Z,87.76
2019-05-18T02:32:20.989Z,87.76
2019-05-18T02:33:20.989Z,87.65
2019-05-18T02:34:20.986Z,87.55
2019-05-18T02:35:20.953Z,87.55
2019-05-18T02:36:20.988Z,87.76
2019-05-18T02:37:20.928Z,87.85
2019-05-18T02:38:20.940Z,87.96
2019-05-18T02:39:20.927Z,87.85
2019-05-18T02:40:20.908Z,87.85
2019-05-18T02:41:20.888Z,87.76
2019-05-18T02:42:20.882Z,87.65
2019-05-18T02:43:20.881Z,87.55
2019-05-18T02:44:20.854Z,87.45
2019-05-18T02:45:20.849Z,87.55
2019-05-18T02:46:20.842Z,87.55
2019-05-18T02:47:20.831Z,87.55
2019-05-18T02:48:20.803Z,87.55
2019-05-18T02:49:20.805Z,87.45
2019-05-18T02:50:20.810Z,87.45
2019-05-18T02:51:20.785Z,87.35
2019-05-18T02:52:20.762Z,87.24
2019-05-18T02:53:20.766Z,87.14
2019-05-18T02:54:20.755Z,87.04
2019-05-18T02:55:20.754Z,87.04
2019-05-18T02:56:20.724Z,86.94
2019-05-18T02:57:20.724Z,86.94
2019-05-18T02:58:20.706Z,87.04
2019-05-18T02:59:20.707Z,87.04
2019-05-18T03:00:20.713Z,87.04
2019-05-18T03:01:20.702Z,87.14
2019-05-18T03:02:20.660Z,87.04
2019-05-18T03:03:20.650Z,87.04
2019-05-18T03:04:20.653Z,87.04
2019-05-18T03:05:20.627Z,87.04
2019-05-18T03:06:20.647Z,86.94
2019-05-18T03:07:20.606Z,87.04
2019-05-18T03:08:20.613Z,87.04
2019-05-18T03:09:20.584Z,86.94
2019-05-18T03:10:20.578Z,86.94
2019-05-18T03:11:20.587Z,86.83
2019-05-18T03:12:20.580Z,86.33
2019-05-18T03:13:20.567Z,86.02
2019-05-18T03:14:20.533Z,85.92
2019-05-18T03:15:20.530Z,86.12
2019-05-18T03:16:20.532Z,86.33
2019-05-18T03:17:20.501Z,86.53
2019-05-18T03:18:20.500Z,86.63
2019-05-18T03:19:20.474Z,86.63
2019-05-18T03:20:20.482Z,86.73
2019-05-18T03:21:20.464Z,86.83
2019-05-18T03:22:20.456Z,86.73
2019-05-18T03:23:20.440Z,86.73
2019-05-18T03:24:20.426Z,86.73
2019-05-18T03:25:20.448Z,86.94
2019-05-18T03:26:20.410Z,86.94
2019-05-18T03:27:20.422Z,86.94
2019-05-18T03:28:20.413Z,86.83
2019-05-18T03:29:20.396Z,86.83
2019-05-18T03:30:20.358Z,86.83
2019-05-18T03:31:20.367Z,86.83
2019-05-18T03:32:20.366Z,87.04
2019-05-18T03:33:20.352Z,87.04
2019-05-18T03:34:20.332Z,86.94
2019-05-18T03:35:20.419Z,86.94
2019-05-18T03:36:20.355Z,86.83
2019-05-18T03:37:20.302Z,86.73
2019-05-18T03:38:20.294Z,86.63
2019-05-18T03:39:20.288Z,86.63
2019-05-18T03:40:20.262Z,86.63
2019-05-18T03:41:20.250Z,86.73
2019-05-18T03:42:20.242Z,86.73
2019-05-18T03:43:20.223Z,86.63
2019-05-18T03:44:20.223Z,86.73
2019-05-18T03:45:20.205Z,86.73
2019-05-18T03:46:23.773Z,86.73
2019-05-18T03:47:20.202Z,86.73
2019-05-18T03:48:20.188Z,86.73
2019-05-18T03:49:26.801Z,86.73
2019-05-18T03:50:21.166Z,86.73
2019-05-18T03:51:20.144Z,86.73
2019-05-18T03:52:20.134Z,86.83
2019-05-18T03:53:20.130Z,86.94
2019-05-18T03:54:20.107Z,87.04
2019-05-18T03:55:20.101Z,87.04
2019-05-18T03:56:20.098Z,87.14
2019-05-18T03:57:20.076Z,87.35
2019-05-18T03:58:20.057Z,87.45
2019-05-18T03:59:20.056Z,87.45
2019-05-18T04:00:20.050Z,87.45
2019-05-18T04:01:20.036Z,87.30
2019-05-18T04:02:20.018Z,87.20
2019-05-18T04:03:20.016Z,87.10
2019-05-18T04:04:20.015Z,87.10
2019-05-18T04:05:19.999Z,87.20
2019-05-18T04:06:20.025Z,87.10
2019-05-18T04:07:19.965Z,87.00
2019-05-18T04:08:20.919Z,87.10
2019-05-18T04:09:20.925Z,87.20
2019-05-18T04:10:19.941Z,87.20
2019-05-18T04:11:20.138Z,87.20
2019-05-18T04:12:19.914Z,87.10
2019-05-18T04:13:19.917Z,87.20
2019-05-18T04:14:19.974Z,87.20
2019-05-18T04:15:19.902Z,87.20
2019-05-18T04:16:19.904Z,87.20
2019-05-18T04:17:19.859Z,87.30
2019-05-18T04:18:19.859Z,87.30
2019-05-18T04:19:19.846Z,87.41
2019-05-18T04:20:19.890Z,87.41
2019-05-18T04:21:19.817Z,87.57
2019-05-18T04:22:19.820Z,87.67
2019-05-18T04:23:19.802Z,87.67
2019-05-18T04:24:19.776Z,87.67
2019-05-18T04:25:19.780Z,87.67
2019-05-18T04:26:19.762Z,87.47
2019-05-18T04:27:19.748Z,87.37
2019-05-18T04:29:32.004Z,86.76
2019-05-18T04:30:28.636Z,86.76
2019-05-18T04:31:32.192Z,86.76
2019-05-18T04:32:28.614Z,86.86
2019-05-18T04:33:28.603Z,86.65
2019-05-18T04:34:28.593Z,86.55
2019-05-18T04:35:28.579Z,86.55
2019-05-18T04:36:28.570Z,86.41
2019-05-18T04:37:28.561Z,86.30
2019-05-18T04:38:28.563Z,85.80
2019-05-18T04:39:28.528Z,85.49
2019-05-18T04:40:28.541Z,84.98
2019-05-18T04:41:28.518Z,84.88
2019-05-18T04:42:28.499Z,85.08
2019-05-18T04:43:28.511Z,85.08
2019-05-18T04:44:28.500Z,85.19
2019-05-18T04:45:28.468Z,85.28
2019-05-18T04:46:28.476Z,85.28
2019-05-18T04:47:28.451Z,85.28
2019-05-18T04:48:28.437Z,85.19
2019-05-18T04:49:28.437Z,85.08
2019-05-18T04:50:28.427Z,85.08
2019-05-18T04:51:28.435Z,84.94
2019-05-18T04:52:28.395Z,84.74
2019-05-18T04:53:28.478Z,84.43
2019-05-18T04:54:28.374Z,84.37
2019-05-18T04:55:28.370Z,84.27
2019-05-18T04:56:28.354Z,84.17
2019-05-18T04:57:28.350Z,84.17
2019-05-18T04:58:28.372Z,84.17
2019-05-18T04:59:28.324Z,84.37
2019-05-18T05:00:28.318Z,84.58
2019-05-18T05:01:28.332Z,84.67
2019-05-18T05:02:28.304Z,84.88
2019-05-18T05:03:28.294Z,84.78
2019-05-18T05:04:28.272Z,84.47
2019-05-18T05:05:28.271Z,84.67
2019-05-18T05:06:28.250Z,84.47
2019-05-18T05:07:28.242Z,84.06
2019-05-18T05:08:28.230Z,84.06
2019-05-18T05:09:28.219Z,83.86
2019-05-18T05:10:28.227Z,83.96
2019-05-18T05:11:28.197Z,84.17
2019-05-18T05:12:28.187Z,83.96
2019-05-18T05:13:28.167Z,83.96
2019-05-18T05:14:28.166Z,83.96
2019-05-18T05:15:28.162Z,83.92
2019-05-18T05:16:28.158Z,83.92
2019-05-18T05:17:28.129Z,84.03
2019-05-18T05:18:28.128Z,83.72
2019-05-18T05:19:28.685Z,83.42
2019-05-18T05:20:28.107Z,83.11
2019-05-18T05:21:28.086Z,83.01
2019-05-18T05:22:28.099Z,83.01
2019-05-18T05:23:28.063Z,82.97
2019-05-18T05:24:28.054Z,82.97
2019-05-18T05:25:28.055Z,83.17
2019-05-18T05:26:28.042Z,83.07
2019-05-18T05:27:28.022Z,82.97
2019-05-18T05:28:28.023Z,82.97
2019-05-18T05:29:28.013Z,83.07
2019-05-18T05:30:28.016Z,82.97
2019-05-18T05:31:27.979Z,82.46
2019-05-18T05:32:27.980Z,82.46
2019-05-18T05:33:27.973Z,82.66
2019-05-18T05:34:27.948Z,82.76
2019-05-18T05:35:27.977Z,82.52
2019-05-18T05:36:27.930Z,82.01
2019-05-18T05:37:27.918Z,81.91
2019-05-18T05:38:27.915Z,81.81
2019-05-18T05:39:27.904Z,81.71
2019-05-18T05:40:27.889Z,81.60
2019-05-18T05:41:27.876Z,81.60
2019-05-18T05:42:27.856Z,81.71
2019-05-18T05:43:27.864Z,81.60
2019-05-18T05:44:27.846Z,81.40
2019-05-18T05:45:27.837Z,81.30
2019-05-18T05:46:27.824Z,81.26
2019-05-18T05:47:27.845Z,81.16
2019-05-18T05:48:27.805Z,80.96
2019-05-18T05:49:27.794Z,80.85
2019-05-18T05:50:36.025Z,80.76
2019-05-18T05:51:28.774Z,80.55
2019-05-18T05:52:27.775Z,80.45
2019-05-18T05:53:27.762Z,80.45
2019-05-18T05:54:27.743Z,80.45
2019-05-18T05:55:27.721Z,80.45
2019-05-18T05:56:27.710Z,80.45
2019-05-18T05:57:27.709Z,80.51
2019-05-18T05:58:27.715Z,80.55
2019-05-18T05:59:27.678Z,80.31
2019-05-18T06:00:27.670Z,80.31
2019-05-18T06:01:27.660Z,80.41
2019-05-18T06:02:27.651Z,80.21
2019-05-18T06:03:27.658Z,80.11
2019-05-18T06:04:27.639Z,79.80
2019-05-18T06:05:27.617Z,79.70
2019-05-18T06:06:27.608Z,79.80
2019-05-18T06:07:27.596Z,79.39
2019-05-18T06:08:27.624Z,79.39
2019-05-18T06:09:27.567Z,79.19
2019-05-18T06:10:27.556Z,79.19
2019-05-18T06:11:27.556Z,79.16
2019-05-18T06:12:27.536Z,79.16
2019-05-18T06:13:27.537Z,79.16
2019-05-18T06:14:27.526Z,78.95
2019-05-18T06:15:27.523Z,79.05
2019-05-18T06:16:27.495Z,78.95
2019-05-18T06:17:27.524Z,78.95
2019-05-18T06:18:27.474Z,78.95
2019-05-18T06:19:27.472Z,78.75
2019-05-18T06:20:27.466Z,78.55
2019-05-18T06:21:27.447Z,78.64
2019-05-18T06:22:27.425Z,78.64
2019-05-18T06:23:27.421Z,78.71
2019-05-18T06:24:27.410Z,78.61
2019-05-18T06:25:27.411Z,78.30
2019-05-18T06:26:27.391Z,78.30
2019-05-18T06:27:27.393Z,78.41
2019-05-18T06:28:27.369Z,77.90
2019-05-18T06:29:27.370Z,77.90
2019-05-18T06:30:27.348Z,77.97
2019-05-18T06:31:27.339Z,77.97
2019-05-18T06:32:27.324Z,77.86
2019-05-18T06:33:27.318Z,77.56
2019-05-18T06:34:27.329Z,77.25
2019-05-18T06:35:27.297Z,76.91
2019-05-18T06:36:27.286Z,76.51
2019-05-18T06:37:27.276Z,76.71
2019-05-18T06:38:27.287Z,76.47
2019-05-18T06:39:27.256Z,76.37
2019-05-18T06:40:27.268Z,76.06
2019-05-18T06:41:27.224Z,75.62
2019-05-18T06:42:27.224Z,75.12
2019-05-18T06:43:27.204Z,74.81
2019-05-18T06:44:27.215Z,74.30
2019-05-18T06:45:27.265Z,74.10
2019-05-18T06:46:27.173Z,73.97
2019-05-18T06:47:28.480Z,73.60
2019-05-18T06:48:27.163Z,73.49
2019-05-18T06:49:27.134Z,73.66
2019-05-18T06:50:27.134Z,73.66
2019-05-18T06:51:27.122Z,73.76
2019-05-18T06:52:27.121Z,72.75
2019-05-18T06:53:27.100Z,72.75
2019-05-18T06:54:27.083Z,71.94
2019-05-18T06:55:27.077Z,72.04
2019-05-18T06:56:27.084Z,72.11
2019-05-18T06:57:27.058Z,72.31
2019-05-18T06:58:27.048Z,72.11
2019-05-18T06:59:27.035Z,71.77
2019-05-18T07:00:27.018Z,71.47
2019-05-18T07:01:27.029Z,70.96
2019-05-18T07:02:26.997Z,70.65
2019-05-18T07:03:26.990Z,70.83
2019-05-18T07:04:26.977Z,70.32
2019-05-18T07:05:26.968Z,70.65
2019-05-18T07:06:26.976Z,70.73
2019-05-18T07:07:26.935Z,70.62
2019-05-18T07:08:26.928Z,70.73
2019-05-18T07:09:26.916Z,70.09
2019-05-18T07:10:26.906Z,69.27
2019-05-18T07:11:26.924Z,69.71
2019-05-18T07:12:26.903Z,69.81
2019-05-18T07:13:26.921Z,69.38
2019-05-18T07:14:26.862Z,68.84
2019-05-18T07:15:26.874Z,67.90
2019-05-18T07:16:26.871Z,66.22
2019-05-18T07:17:26.841Z,65.71
2019-05-18T07:18:26.844Z,66.15
2019-05-18T07:19:26.813Z,66.96
2019-05-18T07:20:26.803Z,65.62
2019-05-18T07:21:26.802Z,62.66
2019-05-18T07:22:26.788Z,61.87
2019-05-18T07:23:26.771Z,61.63
2019-05-18T07:24:26.767Z,61.93
2019-05-18T07:25:26.757Z,63.20
2019-05-18T07:26:26.759Z,63.20
2019-05-18T07:27:26.730Z,65.08
2019-05-18T07:28:26.728Z,65.48
2019-05-18T07:29:26.709Z,63.75
2019-05-18T07:30:26.717Z,60.00
2019-05-18T07:31:26.692Z,59.50
2019-05-18T07:32:26.688Z,58.44
2019-05-18T07:33:26.678Z,57.81
2019-05-18T07:34:26.923Z,54.44
2019-05-18T07:35:26.647Z,51.02
2019-05-18T07:36:26.638Z,50.95
2019-05-18T07:37:26.651Z,49.80
2019-05-18T07:38:26.626Z,47.61
2019-05-18T07:39:26.607Z,47.93
2019-05-18T07:40:26.606Z,47.09
2019-05-18T07:41:26.577Z,44.66
2019-05-18T07:42:26.586Z,46.76
2019-05-18T07:43:26.572Z,48.10
2019-05-18T07:44:26.561Z,52.72
2019-05-18T07:45:26.554Z,55.18
2019-05-18T07:46:26.525Z,56.96
2019-05-18T07:47:26.514Z,58.83
2019-05-18T07:48:26.513Z,59.83
2019-05-18T07:49:26.495Z,57.23
2019-05-18T07:50:26.503Z,52.84
2019-05-18T07:51:36.619Z,48.13
2019-05-18T07:52:27.469Z,48.78
2019-05-18T07:53:26.453Z,48.70
2019-05-18T07:54:26.463Z,49.97
2019-05-18T07:55:26.433Z,46.79
2019-05-18T07:56:26.423Z,43.62
2019-05-18T07:57:26.414Z,44.60
2019-05-18T07:58:26.411Z,45.02
2019-05-18T07:59:26.404Z,48.17
2019-05-18T08:00:26.382Z,51.79
2019-05-18T08:01:26.383Z,53.32
2019-05-18T08:02:26.368Z,52.64
2019-05-18T08:03:26.362Z,47.98
2019-05-18T08:04:26.343Z,45.28
2019-05-18T08:05:26.343Z,45.30
2019-05-18T08:06:26.320Z,43.32
2019-05-18T08:07:26.313Z,43.01
2019-05-18T08:08:26.301Z,41.69
2019-05-18T08:09:26.289Z,42.21
2019-05-18T08:10:26.290Z,44.40
2019-05-18T08:11:26.268Z,47.20
2019-05-18T08:12:26.269Z,49.15
2019-05-18T08:13:26.250Z,47.98
2019-05-18T08:14:26.239Z,46.22
2019-05-18T08:15:26.232Z,42.79
2019-05-18T08:16:26.209Z,41.04
2019-05-18T08:17:26.218Z,40.33
2019-05-18T08:18:26.188Z,41.04
2019-05-18T08:19:26.197Z,39.71
2019-05-18T08:20:26.197Z,39.18
2019-05-18T08:21:26.158Z,38.35
2019-05-18T08:22:26.149Z,37.56
2019-05-18T08:23:26.147Z,37.45
2019-05-18T08:24:26.180Z,37.23
2019-05-18T08:25:26.126Z,35.52
2019-05-18T08:26:26.116Z,34.99
2019-05-18T08:27:26.098Z,33.97
2019-05-18T08:28:26.094Z,33.58
2019-05-18T08:29:26.082Z,34.79
2019-05-18T08:30:26.076Z,34.77
2019-05-18T08:31:26.065Z,34.28
2019-05-18T08:32:26.045Z,34.17
2019-05-18T08:33:26.046Z,33.80
2019-05-18T08:34:26.038Z,35.96
2019-05-18T08:35:27.314Z,38.82
2019-05-18T08:36:26.007Z,38.70
2019-05-18T08:37:25.996Z,39.36
2019-05-18T08:38:25.987Z,39.42
2019-05-18T08:39:25.975Z,37.99
2019-05-18T08:40:25.976Z,37.56
2019-05-18T08:41:25.964Z,36.32
2019-05-18T08:42:25.945Z,35.89
2019-05-18T08:43:25.936Z,35.07
2019-05-18T08:44:25.935Z,34.08
2019-05-18T08:45:25.924Z,36.16
2019-05-18T08:46:25.913Z,38.53
2019-05-18T08:47:25.902Z,39.77
2019-05-18T08:48:25.885Z,42.79
2019-05-18T08:49:25.882Z,46.80
2019-05-18T08:50:25.885Z,49.59
2019-05-18T08:51:25.864Z,51.74
2019-05-18T08:52:25.852Z,52.34
2019-05-18T08:53:25.840Z,48.88
2019-05-18T08:54:25.823Z,45.70
2019-05-18T08:55:25.823Z,43.50
2019-05-18T08:56:25.825Z,41.85
2019-05-18T08:57:25.801Z,40.42
2019-05-18T08:58:25.792Z,39.81
2019-05-18T08:59:25.782Z,40.01
2019-05-18T09:00:26.011Z,40.68
2019-05-18T09:01:25.771Z,43.68
2019-05-18T09:02:25.751Z,45.52
2019-05-18T09:03:25.757Z,44.06
2019-05-18T09:04:25.743Z,42.65
2019-05-18T09:05:25.719Z,42.58
2019-05-18T09:06:25.770Z,41.89
2019-05-18T09:07:25.691Z,41.77
2019-05-18T09:08:25.694Z,41.79
2019-05-18T09:09:25.671Z,40.52
2019-05-18T09:10:25.679Z,39.26
2019-05-18T09:11:25.668Z,37.54
2019-05-18T09:12:25.650Z,36.63
2019-05-18T09:13:25.629Z,36.63
2019-05-18T09:14:25.631Z,36.87
2019-05-18T09:15:25.619Z,37.93
2019-05-18T09:16:25.649Z,38.74
2019-05-18T09:17:25.590Z,39.04
2019-05-18T09:18:25.579Z,39.25
2019-05-18T09:19:25.568Z,40.90
2019-05-18T09:20:25.578Z,41.77
2019-05-18T09:21:25.551Z,44.99
2019-05-18T09:22:25.539Z,48.07
2019-05-18T09:23:25.607Z,50.24
2019-05-18T09:24:25.526Z,51.59
2019-05-18T09:25:25.539Z,52.42
2019-05-18T09:26:25.500Z,52.72
2019-05-18T09:27:25.499Z,52.24
2019-05-18T09:28:25.486Z,52.24
2019-05-18T09:29:25.520Z,53.50
2019-05-18T09:30:25.467Z,54.10
2019-05-18T09:31:25.470Z,53.77
2019-05-18T09:32:25.441Z,53.45
2019-05-18T09:33:25.436Z,52.92
2019-05-18T09:34:25.418Z,52.32
2019-05-18T09:35:25.494Z,52.22
2019-05-18T09:36:25.406Z,52.22
2019-05-18T09:37:25.385Z,51.99
2019-05-18T09:38:25.375Z,52.09
2019-05-18T09:39:25.374Z,51.49
2019-05-18T09:40:25.464Z,51.49
2019-05-18T09:41:25.353Z,51.37
2019-05-18T09:42:25.339Z,51.14
2019-05-18T09:43:25.324Z,51.77
2019-05-18T09:44:25.323Z,51.67
2019-05-18T09:45:25.314Z,52.17
2019-05-18T09:46:25.303Z,52.22
2019-05-18T09:47:25.288Z,53.25
2019-05-18T09:48:25.263Z,54.38
2019-05-18T09:49:25.267Z,54.97
2019-05-18T09:50:25.259Z,54.58
2019-05-18T09:51:25.263Z,54.07
2019-05-18T09:52:43.623Z,54.15
2019-05-18T09:53:26.214Z,53.62
2019-05-18T09:54:25.200Z,53.62
2019-05-18T09:55:25.193Z,52.55
2019-05-18T09:56:25.200Z,53.87
2019-05-18T09:57:25.171Z,53.90
2019-05-18T09:58:25.159Z,54.33
2019-05-18T09:59:25.186Z,54.43
2019-05-18T10:00:25.140Z,54.43
2019-05-18T10:01:25.149Z,54.70
2019-05-18T10:02:25.128Z,54.50
2019-05-18T10:03:25.108Z,54.07
2019-05-18T10:04:25.099Z,53.14
2019-05-18T10:05:25.144Z,52.52
2019-05-18T10:06:25.095Z,52.72
2019-05-18T10:07:25.089Z,52.80
2019-05-18T10:08:25.059Z,53.12
2019-05-18T10:09:25.327Z,52.52
2019-05-18T10:10:25.036Z,52.62
2019-05-18T10:11:25.049Z,52.62
2019-05-18T10:12:25.047Z,52.19
2019-05-18T10:13:25.037Z,51.59
2019-05-18T10:14:24.996Z,52.09
2019-05-18T10:15:24.987Z,51.97
2019-05-18T10:16:25.073Z,51.46
2019-05-18T10:17:24.995Z,52.22
2019-05-18T10:18:24.944Z,52.32
2019-05-18T10:19:24.942Z,52.94
2019-05-18T10:20:24.924Z,52.92
2019-05-18T10:21:24.950Z,52.19
2019-05-18T10:22:24.933Z,51.67
2019-05-18T10:23:24.893Z,51.57
2019-05-18T10:24:24.884Z,51.64
2019-05-18T10:25:24.878Z,51.17
2019-05-18T10:26:24.891Z,51.79
2019-05-18T10:27:24.862Z,51.89
2019-05-18T10:28:24.881Z,51.69
2019-05-18T10:29:24.843Z,51.92
2019-05-18T10:30:24.821Z,51.94
2019-05-18T10:31:24.811Z,53.07
2019-05-18T10:32:24.804Z,52.19
2019-05-18T10:33:24.793Z,51.97
2019-05-18T10:34:24.800Z,52.84
2019-05-18T10:35:24.780Z,52.22
2019-05-18T10:36:24.761Z,51.87
2019-05-18T10:37:24.750Z,52.87
2019-05-18T10:38:24.739Z,53.07
2019-05-18T10:39:24.750Z,52.64
2019-05-18T10:40:24.719Z,52.12
2019-05-18T10:41:24.712Z,52.22
2019-05-18T10:42:24.699Z,51.92
2019-05-18T10:43:24.690Z,51.74
2019-05-18T10:44:24.689Z,52.17
2019-05-18T10:45:24.668Z,52.44
2019-05-18T10:46:24.690Z,52.42
2019-05-18T10:47:24.656Z,52.19
2019-05-18T10:48:24.635Z,51.87
2019-05-18T10:49:24.626Z,50.57
2019-05-18T10:50:24.615Z,49.37
2019-05-18T10:51:24.610Z,50.19
2019-05-18T10:52:24.605Z,50.79
2019-05-18T10:53:28.887Z,51.01
2019-05-18T10:54:24.574Z,51.21
2019-05-18T10:55:24.563Z,51.29
2019-05-18T10:56:24.553Z,49.69
2019-05-18T10:57:24.551Z,49.76
2019-05-18T10:58:24.542Z,48.86
2019-05-18T10:59:24.515Z,48.76
2019-05-18T11:00:24.513Z,48.94
2019-05-18T11:01:24.518Z,48.24
2019-05-18T11:02:24.522Z,47.84
2019-05-18T11:03:24.472Z,47.61
2019-05-18T11:04:24.472Z,47.04
2019-05-18T11:05:24.457Z,46.72
2019-05-18T11:06:24.441Z,46.72
2019-05-18T11:07:24.433Z,46.81
2019-05-18T11:08:24.431Z,47.24
2019-05-18T11:09:24.451Z,46.84
2019-05-18T11:10:24.420Z,47.94
2019-05-18T11:11:24.391Z,48.54
2019-05-18T11:12:24.379Z,47.54
2019-05-18T11:13:24.371Z,46.56
2019-05-18T11:14:24.360Z,46.26
2019-05-18T11:15:24.490Z,46.86
2019-05-18T11:16:24.340Z,47.04
2019-05-18T11:17:24.332Z,47.14
2019-05-18T11:18:24.464Z,45.66
2019-05-18T11:19:24.318Z,46.76
2019-05-18T11:20:24.328Z,47.46
2019-05-18T11:21:24.293Z,48.26
2019-05-18T11:22:24.281Z,48.66
2019-05-18T11:23:24.307Z,49.07
2019-05-18T11:24:24.249Z,49.66
2019-05-18T11:25:24.265Z,49.07
2019-05-18T11:26:24.236Z,49.37
2019-05-18T11:27:24.216Z,49.14
2019-05-18T11:28:24.236Z,47.76
2019-05-18T11:29:24.773Z,47.69
2019-05-18T11:30:24.195Z,48.58
2019-05-18T11:31:24.179Z,48.69
2019-05-18T11:32:24.175Z,48.58
2019-05-18T11:33:24.155Z,48.49
2019-05-18T11:34:24.145Z,48.76
2019-05-18T11:35:24.144Z,47.86
2019-05-18T11:36:24.123Z,47.06
2019-05-18T11:37:24.113Z,47.58
2019-05-18T11:38:24.103Z,47.58
2019-05-18T11:39:24.093Z,47.38
2019-05-18T11:40:24.104Z,47.06
2019-05-18T11:41:24.069Z,47.46
2019-05-18T11:42:24.062Z,46.46
2019-05-18T11:43:24.053Z,46.36
2019-05-18T11:44:24.042Z,46.46
2019-05-18T11:45:24.083Z,46.36
2019-05-18T11:46:24.012Z,45.64
2019-05-18T11:47:24.011Z,46.14
2019-05-18T11:48:24.018Z,46.24
2019-05-18T11:49:23.990Z,45.74
2019-05-18T11:50:23.980Z,46.04
2019-05-18T11:51:23.960Z,45.84
2019-05-18T11:52:23.952Z,45.54
2019-05-18T11:53:23.942Z,45.21
2019-05-18T11:54:23.929Z,45.12
2019-05-18T11:55:23.937Z,45.12
2019-05-18T11:56:23.909Z,44.79
2019-05-18T11:57:23.898Z,44.39
2019-05-18T11:58:23.898Z,44.09
2019-05-18T11:59:23.878Z,43.79
2019-05-18T12:00:23.868Z,41.89
2019-05-18T12:01:23.862Z,42.49
2019-05-18T12:02:23.848Z,42.10
2019-05-18T12:03:23.866Z,42.79
2019-05-18T12:04:23.826Z,42.29
2019-05-18T12:05:23.817Z,42.21
2019-05-18T12:06:23.821Z,42.24
2019-05-18T12:07:23.846Z,43.13
2019-05-18T12:08:23.826Z,43.43
2019-05-18T12:09:23.817Z,43.71
2019-05-18T12:10:23.769Z,44.42
2019-05-18T12:11:23.763Z,44.70
2019-05-18T12:12:23.745Z,43.79
2019-05-18T12:13:23.735Z,44.07
2019-05-18T12:14:23.714Z,43.67
2019-05-18T12:15:23.713Z,43.77
2019-05-18T12:16:23.705Z,43.48
2019-05-18T12:17:23.684Z,43.48
2019-05-18T12:18:23.672Z,43.67
2019-05-18T12:19:23.662Z,44.07
2019-05-18T12:20:23.662Z,43.18
2019-05-18T12:21:23.645Z,43.25
2019-05-18T12:22:23.635Z,42.55
2019-05-18T12:23:23.621Z,42.95
2019-05-18T12:24:23.631Z,43.35
2019-05-18T12:25:23.601Z,43.45
2019-05-18T12:26:23.599Z,43.13
2019-05-18T12:27:23.580Z,43.33
2019-05-18T12:28:23.594Z,44.01
2019-05-18T12:29:23.569Z,44.13
2019-05-18T12:30:23.550Z,43.15
2019-05-18T12:31:23.540Z,43.77
2019-05-18T12:32:23.529Z,44.67
2019-05-18T12:33:23.519Z,44.05
2019-05-18T12:34:23.518Z,43.63
2019-05-18T12:35:23.522Z,43.73
2019-05-18T12:36:23.490Z,44.73
2019-05-18T12:37:23.488Z,43.41
2019-05-18T12:38:23.468Z,43.21
2019-05-18T12:39:23.465Z,42.69
2019-05-18T12:40:23.445Z,42.10
2019-05-18T12:41:23.428Z,42.10
2019-05-18T12:42:23.428Z,43.19
2019-05-18T12:43:23.416Z,41.19
2019-05-18T12:44:23.434Z,42.32
2019-05-18T12:45:23.391Z,42.71
2019-05-18T12:46:23.385Z,42.91
2019-05-18T12:47:23.368Z,42.51
2019-05-18T12:48:23.363Z,43.23
2019-05-18T12:49:23.354Z,43.23
2019-05-18T12:50:23.335Z,43.15
2019-05-18T12:51:23.350Z,43.95
2019-05-18T12:52:23.333Z,45.35
2019-05-18T12:53:23.304Z,46.39